createdAt,value
2022-12-12T00:07:59.110Z,0.5
2022-12-12T00:17:59.649Z,0.5
2022-12-12T00:48:00.994Z,0.4
2022-12-12T00:58:01.904Z,0.4
2022-12-12T01:08:02.495Z,0.4
2022-12-12T01:18:03.199Z,0.4
2022-12-12T01:28:04.231Z,0.4
2022-12-12T01:38:04.739Z,0.5
2022-12-12T01:48:05.465Z,0.4
2022-12-12T01:58:05.847Z,0.4
2022-12-12T02:08:06.166Z,0.4
2022-12-12T02:18:11.295Z,0.4
2022-12-12T02:28:07.691Z,0.4
2022-12-12T02:38:08.365Z,0.5
2022-12-12T02:48:08.736Z,0.4
2022-12-12T02:58:09.042Z,0.4
2022-12-12T03:18:09.314Z,0.4
2022-12-12T03:28:09.635Z,0.5
2022-12-12T03:38:10.717Z,0.5
2022-12-12T03:58:12.171Z,0.5
2022-12-12T04:18:14.038Z,0.4
2022-12-12T04:28:14.733Z,0.3
2022-12-12T04:38:15.520Z,0.3
2022-12-12T04:48:16.616Z,0.3
2022-12-12T04:58:16.761Z,0.3
2022-12-12T05:08:17.568Z,0.3
2022-12-12T05:18:18.138Z,0.3
2022-12-12T05:28:18.834Z,0.3
2022-12-12T05:48:24.221Z,0.3
2022-12-12T05:58:20.922Z,0.3
2022-12-12T06:08:24.945Z,0.2
2022-12-12T06:18:21.513Z,0.2
2022-12-12T06:28:22.042Z,0.2
2022-12-12T06:38:22.686Z,0.3
2022-12-12T06:48:23.093Z,0.3
2022-12-12T06:58:23.535Z,0.3
2022-12-12T07:58:26.808Z,0.2
2022-12-12T08:08:26.975Z,0.2
2022-12-12T08:18:27.400Z,0.3
2022-12-12T08:38:29.121Z,0.4
2022-12-12T08:48:29.445Z,0.3
2022-12-12T08:58:30.538Z,0.5
2022-12-12T09:08:31.575Z,0.7
2022-12-12T09:18:32.106Z,0.9
2022-12-12T09:28:32.197Z,1
2022-12-12T09:48:32.903Z,0.5
2022-12-12T09:58:33.382Z,0.5
2022-12-12T10:08:34.364Z,0.6
2022-12-12T10:18:34.961Z,0.7
2022-12-12T10:28:36.069Z,0.6
2022-12-12T10:38:36.613Z,0.8
2022-12-12T10:48:36.710Z,0.6
2022-12-12T10:58:37.670Z,0.7
2022-12-12T11:08:38.090Z,0.8
2022-12-12T11:18:38.745Z,0.8
2022-12-12T11:28:39.877Z,0.7
2022-12-12T11:38:40.655Z,0.8
2022-12-12T11:48:41.467Z,0.9
2022-12-12T11:49:03.360Z,0.9
2022-12-12T11:58:47.540Z,1
2022-12-12T12:08:48.015Z,1.1
2022-12-12T12:18:48.782Z,1.2
2022-12-12T12:28:49.718Z,1.2
2022-12-12T12:38:50.300Z,1.7
2022-12-12T12:48:50.991Z,2
2022-12-12T12:58:51.160Z,2.3
2022-12-12T13:08:52.138Z,2.5
2022-12-12T13:18:52.304Z,2.5
2022-12-12T13:28:53.315Z,2.6
2022-12-12T13:58:54.476Z,2.4
2022-12-12T14:08:54.622Z,2
2022-12-12T14:18:55.171Z,1.7
2022-12-12T14:28:55.289Z,1.6
2022-12-12T14:48:57.290Z,1.3
2022-12-12T14:58:57.432Z,1.1
2022-12-12T15:08:57.828Z,1
2022-12-12T15:28:59.296Z,0.6
2022-12-12T15:38:59.420Z,0.3
2022-12-12T15:49:00.480Z,0
2022-12-12T15:59:00.849Z,-0.3
2022-12-12T16:09:01.256Z,-0.6
2022-12-12T16:19:02.107Z,-0.7
2022-12-12T16:29:02.748Z,-0.8
2022-12-12T16:39:03.022Z,-0.9
2022-12-12T16:59:03.976Z,-1.2
2022-12-12T17:09:04.620Z,-1.3
2022-12-12T17:19:05.704Z,-1.5
2022-12-12T17:29:05.966Z,-1.6
2022-12-12T17:39:06.264Z,-1.8
2022-12-12T17:49:07.304Z,-1.8
2022-12-12T17:59:08.164Z,-2
2022-12-12T18:09:08.410Z,-2.1
2022-12-12T18:19:08.951Z,-2.1
2022-12-12T18:29:09.814Z,-2.2
2022-12-12T18:49:16.210Z,-2.5
2022-12-12T18:59:16.809Z,-2.5
2022-12-12T19:09:17.866Z,-2.6
2022-12-12T19:19:18.769Z,-2.7
2022-12-12T19:29:19.572Z,-2.7
2022-12-12T19:39:19.848Z,-2.8
2022-12-12T19:59:21.596Z,-3.1
2022-12-12T20:09:22.172Z,-3.1
2022-12-12T20:19:22.877Z,-3.2
2022-12-12T20:29:23.051Z,-3.3
2022-12-12T20:39:23.780Z,-3.4
2022-12-12T20:49:24.924Z,-3.4
2022-12-12T20:59:25.539Z,-3.4
2022-12-12T21:09:26.590Z,-3.3
2022-12-12T21:19:26.251Z,-3.2
2022-12-12T21:29:26.854Z,-3.4
2022-12-12T21:39:27.824Z,-3.4
2022-12-12T21:59:29.244Z,-3.6
2022-12-12T22:09:29.854Z,-3.7
2022-12-12T22:19:30.946Z,-3.9
2022-12-12T22:29:31.934Z,-4
2022-12-12T22:39:32.882Z,-4.1
2022-12-12T22:49:33.196Z,-4.1
2022-12-12T22:59:33.448Z,-4.1
2022-12-12T23:09:34.267Z,-4.2
2022-12-12T23:19:35.175Z,-4.2
2022-12-12T23:29:36.161Z,-4.3
2022-12-12T23:39:36.459Z,-4.4
2022-12-12T23:49:37.429Z,-4.5
2022-12-12T23:59:37.539Z,-4.6
